createdAt,value
2018-07-30T00:01:17.809Z,25.19
2018-07-30T00:03:47.900Z,25.16
2018-07-30T00:06:18.009Z,25.06
2018-07-30T00:08:48.034Z,25.04
2018-07-30T00:11:18.062Z,25.00
2018-07-30T00:13:48.041Z,25.01
2018-07-30T00:16:18.073Z,25.06
2018-07-30T00:18:48.098Z,25.06
2018-07-30T00:21:18.127Z,24.98
2018-07-30T00:23:48.147Z,25.04
2018-07-30T00:26:18.138Z,25.10
2018-07-30T00:28:48.184Z,25.05
2018-07-30T00:31:18.274Z,24.96
2018-07-30T00:33:48.309Z,24.98
2018-07-30T00:36:18.349Z,24.98
2018-07-30T00:38:48.393Z,24.91
2018-07-30T00:41:18.469Z,24.91
2018-07-30T00:43:48.505Z,24.85
2018-07-30T00:46:18.449Z,24.85
2018-07-30T00:48:48.517Z,24.87
2018-07-30T00:51:18.631Z,24.87
2018-07-30T00:53:48.701Z,24.75
2018-07-30T00:56:18.690Z,24.73
2018-07-30T00:58:48.697Z,24.67
2018-07-30T01:01:18.729Z,24.71
2018-07-30T01:03:48.724Z,24.71
2018-07-30T01:06:18.807Z,24.72
2018-07-30T01:08:48.732Z,24.80
2018-07-30T01:11:18.723Z,24.81
2018-07-30T01:13:48.667Z,24.80
2018-07-30T01:16:18.712Z,24.84
2018-07-30T01:18:48.742Z,24.80
2018-07-30T01:21:18.812Z,24.85
2018-07-30T01:23:48.830Z,24.85
2018-07-30T01:26:23.883Z,24.82
2018-07-30T01:28:53.968Z,24.82
2018-07-30T01:31:24.071Z,24.83
2018-07-30T01:33:54.441Z,24.84
2018-07-30T01:36:24.441Z,24.69
2018-07-30T01:38:54.618Z,24.70
2018-07-30T01:41:24.642Z,24.71
2018-07-30T01:43:54.608Z,24.74
2018-07-30T01:46:24.649Z,24.64
2018-07-30T01:48:54.664Z,24.57
2018-07-30T01:51:25.298Z,24.41
2018-07-30T01:53:55.670Z,24.37
2018-07-30T01:56:26.104Z,24.39
2018-07-30T01:58:56.526Z,24.41
2018-07-30T02:01:26.493Z,24.40
2018-07-30T02:03:56.736Z,24.44
2018-07-30T02:06:27.261Z,24.31
2018-07-30T02:08:57.287Z,24.30
2018-07-30T02:11:27.694Z,24.27
2018-07-30T02:13:58.933Z,24.19
2018-07-30T02:16:29.388Z,24.21
2018-07-30T02:18:59.236Z,24.14
2018-07-30T02:21:29.672Z,24.12
2018-07-30T02:23:59.927Z,24.04
2018-07-30T02:26:30.247Z,23.99
2018-07-30T02:29:00.920Z,24.04
2018-07-30T02:31:31.022Z,24.05
2018-07-30T02:34:01.010Z,24.01
2018-07-30T02:36:31.540Z,23.98
2018-07-30T02:39:01.501Z,23.95
2018-07-30T02:41:31.490Z,23.96
2018-07-30T02:44:02.204Z,23.95
2018-07-30T02:46:32.351Z,23.95
2018-07-30T02:49:02.429Z,23.97
2018-07-30T02:51:32.627Z,23.95
2018-07-30T02:54:02.620Z,23.95
2018-07-30T02:56:32.703Z,23.96
2018-07-30T02:59:02.735Z,23.92
2018-07-30T03:01:32.689Z,23.87
2018-07-30T03:04:02.701Z,23.85
2018-07-30T03:06:32.679Z,23.84
2018-07-30T03:09:02.774Z,23.77
2018-07-30T03:11:32.731Z,23.76
2018-07-30T03:14:02.875Z,23.74
2018-07-30T03:16:32.946Z,23.69
2018-07-30T03:19:03.049Z,23.67
2018-07-30T03:21:33.099Z,23.62
2018-07-30T03:24:03.187Z,23.64
2018-07-30T03:26:33.172Z,23.59
2018-07-30T03:29:03.223Z,23.60
2018-07-30T03:31:33.221Z,23.61
2018-07-30T03:34:03.219Z,23.67
2018-07-30T03:36:33.159Z,23.67
2018-07-30T03:39:03.174Z,23.69
2018-07-30T03:41:33.121Z,23.69
2018-07-30T03:44:03.149Z,23.66
2018-07-30T03:46:33.242Z,23.70
2018-07-30T03:49:03.320Z,23.69
2018-07-30T03:51:32.847Z,23.79
2018-07-30T03:54:02.911Z,23.85
2018-07-30T03:56:32.889Z,23.83
2018-07-30T03:59:02.935Z,23.80
2018-07-30T04:01:32.897Z,23.79
2018-07-30T04:04:05.763Z,23.81
2018-07-30T04:06:35.417Z,23.86
2018-07-30T04:09:06.973Z,23.90
2018-07-30T04:11:37.040Z,23.89
2018-07-30T04:14:07.170Z,23.95
2018-07-30T04:16:41.535Z,23.99
2018-07-30T04:19:11.491Z,24.09
2018-07-30T04:21:41.454Z,24.14
2018-07-30T04:24:11.555Z,24.20
2018-07-30T04:26:41.539Z,24.27
2018-07-30T04:29:11.584Z,24.30
2018-07-30T04:31:41.598Z,24.36
2018-07-30T04:34:11.589Z,24.36
2018-07-30T04:36:41.648Z,24.47
2018-07-30T04:39:13.601Z,24.50
2018-07-30T04:41:44.399Z,24.52
2018-07-30T04:44:15.167Z,24.51
2018-07-30T04:46:45.236Z,24.58
2018-07-30T04:49:15.237Z,24.63
2018-07-30T04:51:45.189Z,24.61
2018-07-30T04:54:15.180Z,24.58
2018-07-30T04:56:45.225Z,24.55
2018-07-30T04:59:15.188Z,24.59
2018-07-30T05:01:45.179Z,24.59
2018-07-30T05:04:15.145Z,24.63
2018-07-30T05:06:45.178Z,24.69
2018-07-30T05:09:15.121Z,24.76
2018-07-30T05:11:45.124Z,24.74
2018-07-30T05:14:15.088Z,24.80
2018-07-30T05:16:45.169Z,24.84
2018-07-30T05:19:15.146Z,24.89
2018-07-30T05:21:45.121Z,24.96
2018-07-30T05:24:15.073Z,25.01
2018-07-30T05:26:45.133Z,25.00
2018-07-30T05:29:15.094Z,25.06
2018-07-30T05:31:45.105Z,25.09
2018-07-30T05:34:15.068Z,25.12
2018-07-30T05:36:45.054Z,25.18
2018-07-30T05:39:15.685Z,25.23
2018-07-30T05:41:45.804Z,25.25
2018-07-30T05:44:15.750Z,25.22
2018-07-30T05:46:45.755Z,25.20
2018-07-30T05:49:15.708Z,25.15
2018-07-30T05:51:45.692Z,25.14
2018-07-30T05:54:15.653Z,25.16
2018-07-30T05:56:45.624Z,25.18
2018-07-30T05:59:15.582Z,25.26
2018-07-30T06:01:45.094Z,25.38
2018-07-30T06:04:15.088Z,25.41
2018-07-30T06:06:45.091Z,25.50
2018-07-30T06:09:15.137Z,25.56
2018-07-30T06:11:45.104Z,25.59
2018-07-30T06:14:15.062Z,25.65
2018-07-30T06:16:45.074Z,25.83
2018-07-30T06:19:15.112Z,25.85
2018-07-30T06:21:45.076Z,25.85
2018-07-30T06:24:17.863Z,25.95
2018-07-30T06:26:47.807Z,26.01
2018-07-30T06:29:17.760Z,26.08
2018-07-30T06:31:47.983Z,26.14
2018-07-30T06:34:17.950Z,26.27
2018-07-30T06:36:48.187Z,26.37
2018-07-30T06:39:18.166Z,26.41
2018-07-30T06:41:48.143Z,26.41
2018-07-30T06:44:18.091Z,26.50
2018-07-30T06:46:48.170Z,26.58
2018-07-30T06:49:18.165Z,26.64
2018-07-30T06:51:48.213Z,26.69
2018-07-30T06:54:18.176Z,26.76
2018-07-30T06:56:48.110Z,26.75
2018-07-30T06:59:20.371Z,26.73
2018-07-30T07:01:50.675Z,26.83
2018-07-30T07:04:20.727Z,26.94
2018-07-30T07:06:50.726Z,27.01
2018-07-30T07:09:20.719Z,27.08
2018-07-30T07:11:50.670Z,27.22
2018-07-30T07:14:20.647Z,27.28
2018-07-30T07:16:50.675Z,27.35
2018-07-30T07:19:20.705Z,27.42
2018-07-30T07:21:50.706Z,27.49
2018-07-30T07:24:21.652Z,27.49
2018-07-30T07:26:51.622Z,27.56
2018-07-30T07:29:21.564Z,27.63
2018-07-30T07:31:51.568Z,27.78
2018-07-30T07:34:21.539Z,27.89
2018-07-30T07:36:51.576Z,27.94
2018-07-30T07:39:21.515Z,27.95
2018-07-30T07:41:51.485Z,28.02
2018-07-30T07:44:21.463Z,28.08
2018-07-30T07:46:51.515Z,28.20
2018-07-30T07:49:21.524Z,28.34
2018-07-30T07:51:51.487Z,28.45
2018-07-30T07:54:21.711Z,28.65
2018-07-30T07:56:51.723Z,28.78
2018-07-30T07:59:21.697Z,29.10
2018-07-30T08:01:51.652Z,29.51
2018-07-30T08:04:21.636Z,29.82
2018-07-30T08:06:51.666Z,30.06
2018-07-30T08:09:21.677Z,30.27
2018-07-30T08:11:51.674Z,30.40
2018-07-30T08:14:21.668Z,30.47
2018-07-30T08:16:51.647Z,30.70
2018-07-30T08:19:21.637Z,31.03
2018-07-30T08:21:51.655Z,31.30
2018-07-30T08:24:21.679Z,31.62
2018-07-30T08:26:51.665Z,31.79
2018-07-30T08:29:21.599Z,31.89
2018-07-30T08:31:51.607Z,32.03
2018-07-30T08:34:21.535Z,32.03
2018-07-30T08:36:51.534Z,32.09
2018-07-30T08:39:21.517Z,32.09
2018-07-30T08:41:51.468Z,32.16
2018-07-30T08:44:21.476Z,32.20
2018-07-30T08:46:51.484Z,32.21
2018-07-30T08:49:21.487Z,32.06
2018-07-30T08:51:51.519Z,32.01
2018-07-30T08:54:21.535Z,31.78
2018-07-30T08:56:51.598Z,31.62
2018-07-30T08:59:21.558Z,31.73
2018-07-30T09:01:51.505Z,31.84
2018-07-30T09:04:22.023Z,32.05
2018-07-30T09:06:52.465Z,32.30
2018-07-30T09:09:23.040Z,32.67
2018-07-30T09:11:53.237Z,32.94
2018-07-30T09:14:23.111Z,33.12
2018-07-30T09:16:54.379Z,33.35
2018-07-30T09:19:24.897Z,33.52
2018-07-30T09:21:55.449Z,33.54
2018-07-30T09:24:26.109Z,33.28
2018-07-30T09:26:56.389Z,33.13
2018-07-30T09:29:26.629Z,33.41
2018-07-30T09:31:57.109Z,33.57
2018-07-30T09:34:27.437Z,33.72
2018-07-30T09:36:58.080Z,33.48
2018-07-30T09:39:28.721Z,33.70
2018-07-30T09:41:59.088Z,34.02
2018-07-30T09:44:29.143Z,34.29
2018-07-30T09:46:59.693Z,34.60
2018-07-30T09:49:30.109Z,34.88
2018-07-30T09:52:00.331Z,35.17
2018-07-30T09:54:30.706Z,34.79
2018-07-30T09:57:01.042Z,34.69
2018-07-30T09:59:31.329Z,34.78
2018-07-30T10:02:01.398Z,34.89
2018-07-30T10:04:31.815Z,34.72
2018-07-30T10:07:01.463Z,34.33
2018-07-30T10:09:31.839Z,33.84
2018-07-30T10:12:02.341Z,33.81
2018-07-30T10:14:32.906Z,33.81
2018-07-30T10:17:03.193Z,33.68
2018-07-30T10:19:33.774Z,33.44
2018-07-30T10:22:04.313Z,33.44
2018-07-30T10:24:34.955Z,33.45
2018-07-30T10:27:05.456Z,33.45
2018-07-30T10:29:35.491Z,33.37
2018-07-30T10:32:05.769Z,33.20
2018-07-30T10:34:36.553Z,32.94
2018-07-30T10:37:07.032Z,32.86
2018-07-30T10:39:37.522Z,32.68
2018-07-30T10:42:08.109Z,32.64
2018-07-30T10:44:38.070Z,32.71
2018-07-30T10:47:08.300Z,32.72
2018-07-30T10:49:38.886Z,32.68
2018-07-30T10:52:09.997Z,32.53
2018-07-30T10:54:40.393Z,32.44
2018-07-30T10:57:10.896Z,32.20
2018-07-30T10:59:41.442Z,32.07
2018-07-30T11:02:12.212Z,32.00
2018-07-30T11:04:43.265Z,32.10
2018-07-30T11:07:13.829Z,32.18
2018-07-30T11:09:44.396Z,32.28
2018-07-30T11:12:14.636Z,32.44
2018-07-30T11:14:45.164Z,32.59
2018-07-30T11:17:15.466Z,32.68
2018-07-30T11:19:46.196Z,32.65
2018-07-30T11:22:16.782Z,32.60
2018-07-30T11:24:47.462Z,32.59
2018-07-30T11:27:18.013Z,32.55
2018-07-30T11:29:48.361Z,32.37
2018-07-30T11:32:19.188Z,32.17
2018-07-30T11:34:49.291Z,32.16
2018-07-30T11:37:19.619Z,31.73
2018-07-30T11:39:50.301Z,31.56
2018-07-30T11:42:20.726Z,31.41
2018-07-30T11:44:51.216Z,31.50
2018-07-30T11:47:21.681Z,31.69
2018-07-30T11:49:52.295Z,32.00
2018-07-30T11:52:22.860Z,32.48
2018-07-30T11:54:53.400Z,32.60
2018-07-30T11:57:23.764Z,32.55
2018-07-30T11:59:54.130Z,32.77
2018-07-30T12:02:24.552Z,33.49
2018-07-30T12:04:55.038Z,34.78
2018-07-30T12:07:25.744Z,35.43
2018-07-30T12:09:56.301Z,36.67
2018-07-30T12:12:26.743Z,36.81
2018-07-30T12:14:56.910Z,36.61
2018-07-30T12:17:27.641Z,36.90
2018-07-30T12:20:01.023Z,37.87
2018-07-30T12:22:31.304Z,38.46
2018-07-30T12:25:01.856Z,38.80
2018-07-30T12:27:32.295Z,39.20
2018-07-30T12:30:02.712Z,39.57
2018-07-30T12:32:33.170Z,38.42
2018-07-30T12:35:03.438Z,38.68
2018-07-30T12:37:34.441Z,38.92
2018-07-30T12:40:04.961Z,39.20
2018-07-30T12:42:35.583Z,39.28
2018-07-30T12:45:06.031Z,40.24
2018-07-30T12:47:36.479Z,41.67
2018-07-30T12:50:07.198Z,41.17
2018-07-30T12:52:37.483Z,40.62
2018-07-30T12:55:07.773Z,40.27
2018-07-30T12:57:38.108Z,39.49
2018-07-30T13:00:08.432Z,38.92
2018-07-30T13:02:38.986Z,38.39
2018-07-30T13:05:09.483Z,37.88
2018-07-30T13:07:40.085Z,37.32
2018-07-30T13:10:10.514Z,37.06
2018-07-30T13:12:40.988Z,37.00
2018-07-30T13:15:11.694Z,37.05
2018-07-30T13:17:42.157Z,37.35
2018-07-30T13:20:12.650Z,36.90
2018-07-30T13:22:43.183Z,36.25
2018-07-30T13:25:13.818Z,37.76
2018-07-30T13:27:44.411Z,39.63
2018-07-30T13:30:15.075Z,41.62
2018-07-30T13:32:45.446Z,43.90
2018-07-30T13:35:15.829Z,45.54
2018-07-30T13:37:46.330Z,46.62
2018-07-30T13:40:16.871Z,48.09
2018-07-30T13:42:47.506Z,48.17
2018-07-30T13:45:17.740Z,47.80
2018-07-30T13:47:48.083Z,44.91
2018-07-30T13:50:18.404Z,45.27
2018-07-30T13:52:48.938Z,45.65
2018-07-30T13:55:19.282Z,44.37
2018-07-30T13:57:49.611Z,42.70
2018-07-30T14:00:20.012Z,40.07
2018-07-30T14:02:50.315Z,38.24
2018-07-30T14:05:20.752Z,36.96
2018-07-30T14:07:51.267Z,36.22
2018-07-30T14:10:21.696Z,35.61
2018-07-30T14:12:52.225Z,35.09
2018-07-30T14:15:22.668Z,34.96
2018-07-30T14:17:53.379Z,34.84
2018-07-30T14:20:23.910Z,34.64
2018-07-30T14:22:54.159Z,34.48
2018-07-30T14:25:24.074Z,34.34
2018-07-30T14:27:54.575Z,33.92
2018-07-30T14:30:25.224Z,33.56
2018-07-30T14:32:55.812Z,33.14
2018-07-30T14:35:26.437Z,32.92
2018-07-30T14:37:56.758Z,32.52
2018-07-30T14:40:27.174Z,32.25
2018-07-30T14:42:57.811Z,32.02
2018-07-30T14:45:27.869Z,31.82
2018-07-30T14:47:57.904Z,31.51
2018-07-30T14:50:27.926Z,31.01
2018-07-30T14:52:58.278Z,30.85
2018-07-30T14:55:28.559Z,30.68
2018-07-30T14:57:58.720Z,30.58
2018-07-30T15:00:29.118Z,30.55
2018-07-30T15:02:59.163Z,30.53
2018-07-30T15:05:29.341Z,30.42
2018-07-30T15:07:59.386Z,30.37
2018-07-30T15:10:29.375Z,30.37
2018-07-30T15:12:59.437Z,30.69
2018-07-30T15:15:29.532Z,31.14
2018-07-30T15:17:59.617Z,31.68
2018-07-30T15:20:29.570Z,32.53
2018-07-30T15:22:59.644Z,33.17
2018-07-30T15:25:29.738Z,33.39
2018-07-30T15:27:59.865Z,33.23
2018-07-30T15:30:29.806Z,33.01
2018-07-30T15:32:59.801Z,32.89
2018-07-30T15:35:29.760Z,32.69
2018-07-30T15:37:59.807Z,32.48
2018-07-30T15:40:29.875Z,32.47
2018-07-30T15:42:59.910Z,32.39
2018-07-30T15:45:29.875Z,32.19
2018-07-30T15:47:59.891Z,32.00
2018-07-30T15:50:29.942Z,31.90
2018-07-30T15:53:07.212Z,31.44
2018-07-30T15:55:37.238Z,30.94
2018-07-30T15:58:07.367Z,30.68
2018-07-30T16:00:37.439Z,30.49
2018-07-30T16:03:07.737Z,30.34
2018-07-30T16:05:37.904Z,30.68
2018-07-30T16:08:08.021Z,31.30
2018-07-30T16:10:38.182Z,31.87
2018-07-30T16:13:08.212Z,31.79
2018-07-30T16:15:38.330Z,31.46
2018-07-30T16:18:08.413Z,31.66
2018-07-30T16:20:38.408Z,31.78
2018-07-30T16:23:08.476Z,31.76
2018-07-30T16:25:38.475Z,31.61
2018-07-30T16:28:08.908Z,31.36
2018-07-30T16:30:39.615Z,31.23
2018-07-30T16:33:09.998Z,31.04
2018-07-30T16:35:40.564Z,30.95
2018-07-30T16:38:11.000Z,30.54
2018-07-30T16:40:41.424Z,30.30
2018-07-30T16:43:11.965Z,30.16
2018-07-30T16:45:42.466Z,30.16
2018-07-30T16:48:13.009Z,30.14
2018-07-30T16:50:43.609Z,30.01
2018-07-30T16:53:13.941Z,29.82
2018-07-30T16:55:44.287Z,29.58
2018-07-30T16:58:14.819Z,29.52
2018-07-30T17:00:45.352Z,29.56
2018-07-30T17:03:15.603Z,29.68
2018-07-30T17:05:46.099Z,29.90
2018-07-30T17:08:16.821Z,30.01
2018-07-30T17:10:47.219Z,29.90
2018-07-30T17:13:17.738Z,29.82
2018-07-30T17:15:48.489Z,29.76
2018-07-30T17:18:19.078Z,29.82
2018-07-30T17:20:49.633Z,30.12
2018-07-30T17:23:19.895Z,30.41
2018-07-30T17:25:50.278Z,30.58
2018-07-30T17:28:20.966Z,30.88
2018-07-30T17:30:51.628Z,30.87
2018-07-30T17:33:22.385Z,30.90
2018-07-30T17:35:53.086Z,31.00
2018-07-30T17:38:23.378Z,30.92
2018-07-30T17:40:53.542Z,30.81
2018-07-30T17:43:24.027Z,30.60
2018-07-30T17:45:54.631Z,30.32
2018-07-30T17:48:25.190Z,30.13
2018-07-30T17:50:55.944Z,30.04
2018-07-30T17:53:26.719Z,29.75
2018-07-30T17:55:57.337Z,29.62
2018-07-30T17:58:27.839Z,29.50
2018-07-30T18:00:58.596Z,29.31
2018-07-30T18:03:29.305Z,29.27
2018-07-30T18:06:00.058Z,29.07
2018-07-30T18:08:30.799Z,28.95
2018-07-30T18:11:02.271Z,28.89
2018-07-30T18:13:32.691Z,28.71
2018-07-30T18:16:04.438Z,28.64
2018-07-30T18:18:34.968Z,28.57
2018-07-30T18:21:06.082Z,28.44
2018-07-30T18:23:36.584Z,28.27
2018-07-30T18:26:07.032Z,28.12
2018-07-30T18:28:37.361Z,28.05
2018-07-30T18:31:07.703Z,27.95
2018-07-30T18:33:38.181Z,27.92
2018-07-30T18:36:08.276Z,27.93
2018-07-30T18:38:41.106Z,27.81
2018-07-30T18:41:11.608Z,27.76
2018-07-30T18:43:42.300Z,27.69
2018-07-30T18:46:12.868Z,27.64
2018-07-30T18:48:42.858Z,27.58
2018-07-30T18:51:13.337Z,27.54
2018-07-30T18:53:43.569Z,27.41
2018-07-30T18:56:13.799Z,27.35
2018-07-30T18:58:44.289Z,27.24
2018-07-30T19:01:14.976Z,27.15
2018-07-30T19:03:45.493Z,27.05
2018-07-30T19:06:16.140Z,27.03
2018-07-30T19:08:46.888Z,26.94
2018-07-30T19:11:17.740Z,26.96
2018-07-30T19:13:48.295Z,26.94
2018-07-30T19:16:19.173Z,26.89
2018-07-30T19:18:50.020Z,26.85
2018-07-30T19:21:20.613Z,26.82
2018-07-30T19:23:51.999Z,26.69
2018-07-30T19:26:22.433Z,26.61
2018-07-30T19:28:52.808Z,26.51
2018-07-30T19:31:23.771Z,26.54
2018-07-30T19:33:54.323Z,26.38
2018-07-30T19:36:25.337Z,26.24
2018-07-30T19:38:55.917Z,26.21
2018-07-30T19:41:26.724Z,26.13
2018-07-30T19:43:57.247Z,26.08
2018-07-30T19:46:27.656Z,26.07
2018-07-30T19:48:58.294Z,26.13
2018-07-30T19:51:28.948Z,26.07
2018-07-30T19:53:59.766Z,26.03
2018-07-30T19:56:30.669Z,26.01
2018-07-30T19:59:01.661Z,25.95
2018-07-30T20:01:31.596Z,25.90
2018-07-30T20:04:02.169Z,25.90
2018-07-30T20:06:32.923Z,25.81
2018-07-30T20:09:03.729Z,25.78
2018-07-30T20:11:34.790Z,25.79
2018-07-30T20:14:05.314Z,25.76
2018-07-30T20:16:36.194Z,25.75
2018-07-30T20:19:06.763Z,25.74
2018-07-30T20:21:37.360Z,25.73
2018-07-30T20:24:07.979Z,25.72
2018-07-30T20:26:39.003Z,25.75
2018-07-30T20:29:10.228Z,25.69
2018-07-30T20:31:40.764Z,25.61
2018-07-30T20:34:11.172Z,25.54
2018-07-30T20:36:41.777Z,25.58
2018-07-30T20:39:12.222Z,25.57
2018-07-30T20:41:42.896Z,25.52
2018-07-30T20:44:13.471Z,25.48
2018-07-30T20:46:43.764Z,25.46
2018-07-30T20:49:14.207Z,25.37
2018-07-30T20:51:44.648Z,25.28
2018-07-30T20:54:15.195Z,25.25
2018-07-30T20:56:45.780Z,25.40
2018-07-30T20:59:16.358Z,25.30
2018-07-30T21:01:46.730Z,25.30
2018-07-30T21:04:17.318Z,25.30
2018-07-30T21:06:48.093Z,25.36
2018-07-30T21:09:18.614Z,25.32
2018-07-30T21:11:49.137Z,25.23
2018-07-30T21:14:19.641Z,25.17
2018-07-30T21:16:50.289Z,25.08
2018-07-30T21:19:20.788Z,24.96
2018-07-30T21:21:51.498Z,24.90
2018-07-30T21:24:22.070Z,24.85
2018-07-30T21:26:52.410Z,24.93
2018-07-30T21:29:22.826Z,24.83
2018-07-30T21:31:53.286Z,24.78
2018-07-30T21:34:23.845Z,24.78
2018-07-30T21:36:54.406Z,24.82
2018-07-30T21:39:24.673Z,24.83
2018-07-30T21:41:55.128Z,24.79
2018-07-30T21:44:25.550Z,24.77
2018-07-30T21:46:55.797Z,24.75
2018-07-30T21:49:26.319Z,24.70
2018-07-30T21:51:56.617Z,24.71
2018-07-30T21:54:27.180Z,24.64
2018-07-30T21:56:57.632Z,24.62
2018-07-30T21:59:27.840Z,24.62
2018-07-30T22:01:58.327Z,24.60
2018-07-30T22:04:28.739Z,24.53
2018-07-30T22:06:59.370Z,24.52
2018-07-30T22:09:29.937Z,24.49
2018-07-30T22:12:00.512Z,24.47
2018-07-30T22:14:31.103Z,24.42
2018-07-30T22:17:01.764Z,24.42
2018-07-30T22:19:32.053Z,24.43
2018-07-30T22:22:02.693Z,24.41
2018-07-30T22:24:33.010Z,24.41
2018-07-30T22:27:03.596Z,24.39
2018-07-30T22:29:33.949Z,24.27
2018-07-30T22:32:04.558Z,24.21
2018-07-30T22:34:34.954Z,24.18
2018-07-30T22:37:04.772Z,24.14
2018-07-30T22:39:35.158Z,24.09
2018-07-30T22:42:05.514Z,24.04
2018-07-30T22:44:35.760Z,24.01
2018-07-30T22:47:06.059Z,23.94
2018-07-30T22:49:36.440Z,23.98
2018-07-30T22:52:06.884Z,23.94
2018-07-30T22:54:37.214Z,23.81
2018-07-30T22:57:07.957Z,23.77
2018-07-30T22:59:37.791Z,23.79
2018-07-30T23:02:07.946Z,23.78
2018-07-30T23:04:38.293Z,23.72
2018-07-30T23:07:08.407Z,23.75
2018-07-30T23:09:38.678Z,23.80
2018-07-30T23:12:09.000Z,23.81
2018-07-30T23:14:39.534Z,23.78
2018-07-30T23:17:10.761Z,23.77
2018-07-30T23:19:41.054Z,23.66
2018-07-30T23:22:11.448Z,23.72
2018-07-30T23:24:42.011Z,23.74
2018-07-30T23:27:12.608Z,23.79
2018-07-30T23:29:43.284Z,23.75
2018-07-30T23:32:13.516Z,23.67
2018-07-30T23:34:43.952Z,23.67
2018-07-30T23:37:14.517Z,23.68
2018-07-30T23:39:44.780Z,23.68
2018-07-30T23:42:15.486Z,23.62
2018-07-30T23:44:46.287Z,23.55
2018-07-30T23:47:16.635Z,23.48
2018-07-30T23:49:47.044Z,23.40
2018-07-30T23:52:17.483Z,23.50
2018-07-30T23:54:48.106Z,23.50
2018-07-30T23:57:18.629Z,23.57
2018-07-30T23:59:49.010Z,23.52
